Terminal Aerodrome Forecast
Issued by NWS

Home | Current Version | Previous Version | Text Only | Print | Product List | Glossary Off
Versions: 1 2 3 4 5 6 7 8 9 10 11 12 13 14 15

000
FTUS42 KMHX 232339
TAFISO
TAF
KISO 232339Z 2400/2424 20011G19KT P6SM SKC
     FM241300 23013G19KT P6SM SCT025 BKN100
     FM241600 25010G16KT P6SM BKN040
     FM242200 24007KT 4SM SHRA VCTS BKN035CB
      AMD LTD TO CLD VIS AND WIND=

USA.gov is the U.S. government's official web portal to all federal, state and local government web resources and services.